createdAt,value
2022-12-08T00:01:09.072Z,15.35
2022-12-08T00:03:38.855Z,14.27
2022-12-08T00:06:07.658Z,11.97
2022-12-08T00:08:35.912Z,10.55
2022-12-08T00:11:02.625Z,9.52
2022-12-08T00:13:29.499Z,8.43
2022-12-08T00:16:00.722Z,8.27
2022-12-08T00:18:27.168Z,8.37
2022-12-08T00:20:57.768Z,7.05
2022-12-08T00:23:24.423Z,9.93
2022-12-08T00:25:51.143Z,7.00
2022-12-08T00:28:17.690Z,8.02
2022-12-08T00:30:44.577Z,9.13
2022-12-08T00:33:12.132Z,7.57
2022-12-08T00:35:42.926Z,8.02
2022-12-08T00:38:09.887Z,6.13
2022-12-08T00:40:36.496Z,6.57
2022-12-08T00:43:03.207Z,6.03
2022-12-08T00:45:29.709Z,7.32
2022-12-08T00:47:56.207Z,6.03
2022-12-08T00:50:22.798Z,8.25
2022-12-08T00:52:49.302Z,7.40
2022-12-08T00:55:15.987Z,6.80
2022-12-08T00:57:42.582Z,6.72
2022-12-08T01:00:09.569Z,6.88
2022-12-08T01:02:39.384Z,6.03
2022-12-08T01:05:06.434Z,6.63
2022-12-08T01:07:33.624Z,5.90
2022-12-08T01:10:00.843Z,6.40
2022-12-08T01:12:29.605Z,7.25
2022-12-08T01:15:01.937Z,7.13
2022-12-08T01:17:28.852Z,6.90
2022-12-08T01:19:55.294Z,8.40
2022-12-08T01:22:21.771Z,7.57
2022-12-08T01:24:48.326Z,7.63
2022-12-08T01:27:16.120Z,6.57
2022-12-08T01:29:42.589Z,8.63
2022-12-08T01:32:09.595Z,7.77
2022-12-08T01:34:36.150Z,6.80
2022-12-08T01:37:02.899Z,10.43
2022-12-08T01:39:29.500Z,8.35
2022-12-08T01:41:56.014Z,7.25
2022-12-08T01:44:22.417Z,7.77
2022-12-08T01:46:48.987Z,7.72
2022-12-08T01:49:18.594Z,8.35
2022-12-08T01:51:57.072Z,7.07
2022-12-08T01:54:26.737Z,10.50
2022-12-08T01:57:00.774Z,6.27
2022-12-08T01:59:30.467Z,6.60
2022-12-08T02:01:57.888Z,7.45
2022-12-08T02:04:24.384Z,8.55
2022-12-08T02:06:51.671Z,6.95
2022-12-08T02:09:20.106Z,6.27
2022-12-08T02:11:46.988Z,7.43
2022-12-08T02:14:14.466Z,9.13
2022-12-08T02:17:03.261Z,8.27
2022-12-08T02:19:53.850Z,11.95
2022-12-08T02:22:43.678Z,18.20
2022-12-08T02:25:22.724Z,21.95
2022-12-08T02:28:06.216Z,21.05
2022-12-08T02:30:41.679Z,25.15
2022-12-08T02:33:27.849Z,27.67
2022-12-08T02:35:59.678Z,25.50
2022-12-08T02:38:45.759Z,28.70
2022-12-08T02:41:37.905Z,27.50
2022-12-08T02:44:07.108Z,28.00
2022-12-08T02:46:44.406Z,29.17
2022-12-08T02:49:10.913Z,27.93
2022-12-08T02:51:37.349Z,31.63
2022-12-08T02:54:03.884Z,28.35
2022-12-08T02:56:57.497Z,25.27
2022-12-08T02:59:51.300Z,25.63
2022-12-08T03:02:20.443Z,23.93
2022-12-08T03:04:58.831Z,21.88
2022-12-08T03:07:45.657Z,17.65
2022-12-08T03:10:33.043Z,15.32
2022-12-08T03:13:07.527Z,8.48
2022-12-08T03:15:36.976Z,5.40
2022-12-08T03:18:06.418Z,4.70
2022-12-08T03:20:34.545Z,6.40
2022-12-08T03:23:05.323Z,4.60
2022-12-08T03:25:36.334Z,6.90
2022-12-08T03:28:02.879Z,5.33
2022-12-08T03:30:32.367Z,9.90
2022-12-08T03:33:07.707Z,4.82
2022-12-08T03:35:38.143Z,7.00
2022-12-08T03:38:16.473Z,5.50
2022-12-08T03:40:44.265Z,5.03
2022-12-08T03:43:10.763Z,6.63
2022-12-08T03:45:37.153Z,5.13
2022-12-08T03:48:03.732Z,5.90
2022-12-08T03:50:30.192Z,6.72
2022-12-08T03:52:56.640Z,6.03
2022-12-08T03:55:23.045Z,6.13
2022-12-08T03:57:49.489Z,5.85
2022-12-08T04:00:16.899Z,4.05
2022-12-08T04:02:43.724Z,4.50
2022-12-08T04:05:10.497Z,5.00
2022-12-08T04:07:37.001Z,5.60
2022-12-08T04:10:04.490Z,6.15
2022-12-08T04:12:31.095Z,6.55
2022-12-08T04:14:57.519Z,5.40
2022-12-08T04:17:23.901Z,5.47
2022-12-08T04:19:50.293Z,5.85
2022-12-08T04:22:16.739Z,7.47
2022-12-08T04:24:43.145Z,4.97
2022-12-08T04:27:09.543Z,5.30
2022-12-08T04:29:36.021Z,6.97
2022-12-08T04:32:02.466Z,6.00
2022-12-08T04:34:28.898Z,7.75
2022-12-08T04:36:55.307Z,5.65
2022-12-08T04:39:21.760Z,6.82
2022-12-08T04:41:48.209Z,8.70
2022-12-08T04:44:14.616Z,7.70
2022-12-08T04:46:43.531Z,9.20
2022-12-08T04:49:10.453Z,8.60
2022-12-08T04:51:37.001Z,9.52
2022-12-08T04:54:03.472Z,7.90
2022-12-08T04:56:29.895Z,6.63
2022-12-08T04:58:56.312Z,6.53
2022-12-08T05:01:22.870Z,6.97
2022-12-08T05:03:49.296Z,9.18
2022-12-08T05:06:16.254Z,7.90
2022-12-08T05:08:43.236Z,8.77
2022-12-08T05:11:11.167Z,9.82
2022-12-08T05:13:37.585Z,11.95
2022-12-08T05:16:09.468Z,9.05
2022-12-08T05:18:36.826Z,10.37
2022-12-08T05:21:04.096Z,11.57
2022-12-08T05:23:31.002Z,9.00
2022-12-08T05:25:57.632Z,10.77
2022-12-08T05:31:15.133Z,13.93
2022-12-08T05:33:42.289Z,20.42
2022-12-08T05:36:09.990Z,11.70
2022-12-08T05:38:36.384Z,12.23
2022-12-08T05:41:02.819Z,12.63
2022-12-08T05:43:29.323Z,10.60
2022-12-08T05:45:55.852Z,10.10
2022-12-08T05:48:22.379Z,11.20
2022-12-08T05:50:50.087Z,10.13
2022-12-08T05:53:17.745Z,8.75
2022-12-08T05:55:44.606Z,8.67
2022-12-08T05:58:20.843Z,11.73
2022-12-08T06:00:48.607Z,9.60
2022-12-08T06:03:16.658Z,11.38
2022-12-08T06:05:45.586Z,12.45
2022-12-08T06:08:12.950Z,11.50
2022-12-08T06:10:41.332Z,12.13
2022-12-08T06:13:08.538Z,11.98
2022-12-08T06:15:38.864Z,12.07
2022-12-08T06:18:05.491Z,12.07
2022-12-08T06:20:32.058Z,18.27
2022-12-08T06:22:58.516Z,17.13
2022-12-08T06:25:25.196Z,14.65
2022-12-08T06:27:51.638Z,13.63
2022-12-08T06:30:18.210Z,14.55
2022-12-08T06:32:44.607Z,12.93
2022-12-08T06:35:11.068Z,11.88
2022-12-08T06:37:37.492Z,11.27
2022-12-08T06:40:04.486Z,9.75
2022-12-08T06:42:31.147Z,12.98
2022-12-08T06:44:57.646Z,13.80
2022-12-08T06:47:26.300Z,13.32
2022-12-08T06:49:52.946Z,16.45
2022-12-08T06:52:19.347Z,19.35
2022-12-08T06:54:45.747Z,16.80
2022-12-08T06:57:12.145Z,17.47
2022-12-08T06:59:39.505Z,18.58
2022-12-08T07:02:06.057Z,14.80
2022-12-08T07:04:32.531Z,16.23
2022-12-08T07:06:58.964Z,17.90
2022-12-08T07:09:25.394Z,14.40
2022-12-08T07:11:51.862Z,13.75
2022-12-08T07:14:18.298Z,12.57
2022-12-08T07:16:44.816Z,12.40
2022-12-08T07:19:11.298Z,14.50
2022-12-08T07:21:37.682Z,9.47
2022-12-08T07:24:04.335Z,8.73
2022-12-08T07:26:30.716Z,7.93
2022-12-08T07:28:57.172Z,8.65
2022-12-08T07:31:24.850Z,6.38
2022-12-08T07:33:52.503Z,8.10
2022-12-08T07:36:19.273Z,6.18
2022-12-08T07:38:45.907Z,7.32
2022-12-08T07:41:17.445Z,8.18
2022-12-08T07:43:44.269Z,7.13
2022-12-08T07:46:15.526Z,7.17
2022-12-08T07:48:42.813Z,11.10
2022-12-08T07:51:11.621Z,7.80
2022-12-08T07:53:42.425Z,10.93
2022-12-08T07:56:10.928Z,9.73
2022-12-08T07:58:37.453Z,11.97
2022-12-08T08:01:04.486Z,9.07
2022-12-08T08:03:31.149Z,11.20
2022-12-08T08:06:04.769Z,14.82
2022-12-08T08:08:31.753Z,13.02
2022-12-08T08:10:58.686Z,13.93
2022-12-08T08:13:25.150Z,15.07
2022-12-08T08:15:51.663Z,12.60
2022-12-08T08:18:18.164Z,11.95
2022-12-08T08:20:44.613Z,13.98
2022-12-08T08:23:11.049Z,11.93
2022-12-08T08:25:37.455Z,18.55
2022-12-08T08:28:03.880Z,17.55
2022-12-08T08:30:30.293Z,15.02
2022-12-08T08:32:56.684Z,17.33
2022-12-08T08:35:23.065Z,12.83
2022-12-08T08:37:49.743Z,16.75
2022-12-08T08:40:17.449Z,15.02
2022-12-08T08:42:43.852Z,18.00
2022-12-08T08:45:10.814Z,17.50
2022-12-08T08:47:37.297Z,14.60
2022-12-08T08:50:04.632Z,14.00
2022-12-08T08:52:31.249Z,14.20
2022-12-08T08:54:57.689Z,14.45
2022-12-08T08:57:25.968Z,15.27
2022-12-08T08:59:53.248Z,13.43
2022-12-08T09:02:20.950Z,14.35
2022-12-08T09:04:47.538Z,13.20
2022-12-08T09:07:15.012Z,16.45
2022-12-08T09:09:41.621Z,15.90
2022-12-08T09:12:08.295Z,15.47
2022-12-08T09:14:34.925Z,18.35
2022-12-08T09:17:01.366Z,15.27
2022-12-08T09:19:27.835Z,13.55
2022-12-08T09:21:54.325Z,11.75
2022-12-08T09:24:20.776Z,12.67
2022-12-08T09:26:47.208Z,12.63
2022-12-08T09:29:13.699Z,25.73
2022-12-08T09:31:40.990Z,16.35
2022-12-08T09:34:07.513Z,14.23
2022-12-08T09:36:33.941Z,12.13
2022-12-08T09:39:00.466Z,12.80
2022-12-08T09:41:58.313Z,9.98
2022-12-08T09:45:01.970Z,11.10
2022-12-08T09:47:42.415Z,10.80
2022-12-08T09:50:30.934Z,10.63
2022-12-08T09:53:06.124Z,10.18
2022-12-08T09:55:55.620Z,10.60
2022-12-08T09:58:31.717Z,13.30
2022-12-08T10:00:58.509Z,8.80
2022-12-08T10:03:29.366Z,10.00
2022-12-08T10:06:33.379Z,10.77
2022-12-08T10:09:17.171Z,11.45
2022-12-08T10:12:05.381Z,11.07
2022-12-08T10:14:43.598Z,9.10
2022-12-08T10:17:26.666Z,11.87
2022-12-08T10:20:15.998Z,14.60
2022-12-08T10:22:44.979Z,17.15
2022-12-08T10:25:28.525Z,18.05
2022-12-08T10:28:00.870Z,15.85
2022-12-08T10:30:27.256Z,13.97
2022-12-08T10:32:53.923Z,12.07
2022-12-08T10:35:23.504Z,10.98
2022-12-08T10:37:58.312Z,10.27
2022-12-08T10:40:28.745Z,10.90
2022-12-08T10:42:57.667Z,10.17
2022-12-08T10:45:26.832Z,10.13
2022-12-08T10:48:00.989Z,9.00
2022-12-08T10:50:36.824Z,8.73
2022-12-08T10:53:09.050Z,9.68
2022-12-08T10:55:51.283Z,8.60
2022-12-08T10:58:32.665Z,7.18
2022-12-08T11:01:13.337Z,7.20
2022-12-08T11:03:48.534Z,6.88
2022-12-08T11:06:22.344Z,7.13
2022-12-08T11:08:52.826Z,6.47
2022-12-08T11:11:27.493Z,5.43
2022-12-08T11:13:56.292Z,5.57
2022-12-08T11:16:23.575Z,5.88
2022-12-08T11:18:56.724Z,5.70
2022-12-08T11:21:36.412Z,5.60
2022-12-08T11:24:23.793Z,5.75
2022-12-08T11:26:54.818Z,7.28
2022-12-08T11:29:22.013Z,8.80
2022-12-08T11:31:54.653Z,8.32
2022-12-08T11:34:53.196Z,6.47
2022-12-08T11:37:34.482Z,7.63
2022-12-08T11:40:07.127Z,6.70
2022-12-08T11:42:44.207Z,6.47
2022-12-08T11:45:20.262Z,5.93
2022-12-08T11:47:56.146Z,5.17
2022-12-08T11:50:29.439Z,5.30
2022-12-08T11:52:58.543Z,4.85
2022-12-08T11:55:48.099Z,4.20
2022-12-08T11:58:36.207Z,4.88
2022-12-08T12:01:02.789Z,6.57
2022-12-08T12:03:44.436Z,11.40
2022-12-08T12:07:00.358Z,12.23
2022-12-08T12:09:45.774Z,10.77
2022-12-08T12:12:41.171Z,9.05
2022-12-08T12:15:43.517Z,10.47
2022-12-08T12:18:22.305Z,10.10
2022-12-08T12:21:20.191Z,12.07
2022-12-08T12:23:57.672Z,18.20
2022-12-08T12:26:28.125Z,11.43
2022-12-08T12:29:07.659Z,11.53
2022-12-08T12:31:40.326Z,13.73
2022-12-08T12:34:21.329Z,9.35
2022-12-08T12:36:55.653Z,10.15
2022-12-08T12:39:29.325Z,7.50
2022-12-08T12:42:01.585Z,7.67
2022-12-08T12:44:27.937Z,8.60
2022-12-08T12:46:57.438Z,8.40
2022-12-08T12:49:38.988Z,7.53
2022-12-08T12:52:17.279Z,8.43
2022-12-08T12:54:45.508Z,10.40
2022-12-08T12:57:11.823Z,7.68
2022-12-08T12:59:55.488Z,9.50
2022-12-08T13:02:31.366Z,10.55
2022-12-08T13:05:14.961Z,10.32
2022-12-08T13:08:01.038Z,9.93
2022-12-08T13:10:32.317Z,11.18
2022-12-08T13:13:10.979Z,11.93
2022-12-08T13:15:41.644Z,10.82
2022-12-08T13:18:28.619Z,8.80
2022-12-08T13:21:04.263Z,8.00
2022-12-08T13:23:36.896Z,8.23
2022-12-08T13:26:11.020Z,11.80
2022-12-08T13:28:59.390Z,11.57
2022-12-08T13:31:52.220Z,7.70
2022-12-08T13:34:59.880Z,9.17
2022-12-08T13:37:42.183Z,8.30
2022-12-08T13:40:19.087Z,8.15
2022-12-08T13:43:05.933Z,9.10
2022-12-08T13:46:18.331Z,7.22
2022-12-08T13:49:32.059Z,8.43
2022-12-08T13:57:27.940Z,8.65
2022-12-08T13:59:54.414Z,11.88
2022-12-08T14:02:33.028Z,10.40
2022-12-08T14:07:48.405Z,10.27
2022-12-08T14:10:22.315Z,10.00
2022-12-08T14:12:55.976Z,13.27
2022-12-08T14:15:22.562Z,9.00
2022-12-08T14:17:54.711Z,12.05
2022-12-08T14:20:33.837Z,9.30
2022-12-08T14:23:08.904Z,19.23
2022-12-08T14:25:35.776Z,7.85
2022-12-08T14:28:04.141Z,7.20
2022-12-08T14:30:32.508Z,7.38
2022-12-08T14:33:00.872Z,6.57
2022-12-08T14:35:33.250Z,7.45
2022-12-08T14:38:05.698Z,6.22
2022-12-08T14:40:38.914Z,8.50
2022-12-08T14:43:08.246Z,9.65
2022-12-08T14:45:45.155Z,10.55
2022-12-08T14:48:32.840Z,10.15
2022-12-08T14:51:12.502Z,10.13
2022-12-08T14:53:42.383Z,9.30
2022-12-08T14:56:17.979Z,9.55
2022-12-08T14:58:44.772Z,7.28
2022-12-08T15:01:14.753Z,9.60
2022-12-08T15:03:44.625Z,9.30
2022-12-08T15:06:13.933Z,10.20
2022-12-08T15:08:57.459Z,10.63
2022-12-08T15:11:23.874Z,8.95
2022-12-08T15:13:52.939Z,15.10
2022-12-08T15:16:38.663Z,15.40
2022-12-08T15:19:27.266Z,13.57
2022-12-08T15:21:55.378Z,9.95
2022-12-08T15:24:25.706Z,11.18
2022-12-08T15:26:52.996Z,9.32
2022-12-08T15:29:28.037Z,9.77
2022-12-08T15:31:57.894Z,13.63
2022-12-08T15:34:24.843Z,13.38
2022-12-08T15:36:53.236Z,11.95
2022-12-08T15:39:28.497Z,11.00
2022-12-08T15:41:54.943Z,12.20
2022-12-08T15:44:21.355Z,10.00
2022-12-08T15:46:47.835Z,10.68
2022-12-08T15:49:17.928Z,11.13
2022-12-08T15:51:45.194Z,16.13
2022-12-08T15:54:11.866Z,11.55
2022-12-08T15:57:02.974Z,16.37
2022-12-08T15:59:28.991Z,12.73
2022-12-08T16:01:55.419Z,14.70
2022-12-08T16:05:25.232Z,15.00
2022-12-08T16:07:27.394Z,17.00
2022-12-08T16:09:54.952Z,22.40
2022-12-08T16:12:25.478Z,16.92
2022-12-08T16:17:40.184Z,17.52
2022-12-08T16:20:13.153Z,22.58
2022-12-08T16:23:03.600Z,20.40
2022-12-08T16:25:26.654Z,22.45
2022-12-08T16:28:02.846Z,27.33
2022-12-08T16:30:35.216Z,26.92
2022-12-08T16:33:01.919Z,20.48
2022-12-08T16:35:28.682Z,22.33
2022-12-08T16:37:55.240Z,19.90
2022-12-08T16:40:22.055Z,21.88
2022-12-08T16:42:48.867Z,22.83
2022-12-08T16:45:21.338Z,18.92
2022-12-08T16:47:57.372Z,19.30
2022-12-08T16:50:33.113Z,18.98
2022-12-08T16:53:03.287Z,20.98
2022-12-08T16:55:30.303Z,25.27
2022-12-08T16:57:57.275Z,29.52
2022-12-08T17:00:26.019Z,21.97
2022-12-08T17:02:53.534Z,21.52
2022-12-08T17:05:21.968Z,21.73
2022-12-08T17:07:50.534Z,28.05
2022-12-08T17:10:23.613Z,25.33
2022-12-08T17:12:51.188Z,23.67
2022-12-08T17:15:20.912Z,22.92
2022-12-08T17:17:47.549Z,22.38
2022-12-08T17:20:34.243Z,33.63
2022-12-08T17:23:00.675Z,26.77
2022-12-08T17:25:27.422Z,36.07
2022-12-08T17:27:54.417Z,29.25
2022-12-08T17:30:20.963Z,30.38
2022-12-08T17:32:47.537Z,33.38
2022-12-08T17:35:13.998Z,26.25
2022-12-08T17:37:40.836Z,29.40
2022-12-08T17:40:08.244Z,27.42
2022-12-08T17:42:34.763Z,26.25
2022-12-08T17:45:01.173Z,31.58
2022-12-08T17:47:27.648Z,38.63
2022-12-08T17:49:54.039Z,37.93
2022-12-08T17:52:20.463Z,44.97
2022-12-08T17:54:46.896Z,40.78
2022-12-08T17:57:13.343Z,43.58
2022-12-08T17:59:39.969Z,36.83
2022-12-08T18:02:06.717Z,32.07
2022-12-08T18:04:33.211Z,41.10
2022-12-08T18:06:59.631Z,30.58
2022-12-08T18:09:26.156Z,31.70
2022-12-08T18:11:52.709Z,49.58
2022-12-08T18:14:19.152Z,44.43
2022-12-08T18:16:46.735Z,36.88
2022-12-08T18:19:14.420Z,37.53
2022-12-08T18:21:42.021Z,36.83
2022-12-08T18:24:15.200Z,39.83
2022-12-08T18:26:41.588Z,38.83
2022-12-08T18:29:08.046Z,41.58
2022-12-08T18:31:34.468Z,48.53
2022-12-08T18:34:00.897Z,47.80
2022-12-08T18:36:27.329Z,32.75
2022-12-08T18:38:53.830Z,30.43
2022-12-08T18:41:23.423Z,36.63
2022-12-08T18:43:50.639Z,22.58
2022-12-08T18:46:17.098Z,21.98
2022-12-08T18:48:47.503Z,19.70
2022-12-08T18:51:16.826Z,24.13
2022-12-08T18:53:44.379Z,31.88
2022-12-08T18:56:27.612Z,30.40
2022-12-08T18:59:01.280Z,33.47
2022-12-08T19:01:30.191Z,22.88
2022-12-08T19:06:47.548Z,44.75
2022-12-08T19:09:14.003Z,30.10
2022-12-08T19:11:41.917Z,37.03
2022-12-08T19:14:09.142Z,24.23
2022-12-08T19:16:35.999Z,19.13
2022-12-08T19:19:03.393Z,22.55
2022-12-08T19:21:32.206Z,30.73
2022-12-08T19:23:58.579Z,37.28
2022-12-08T19:26:27.183Z,32.35
2022-12-08T19:28:53.956Z,32.30
2022-12-08T19:31:20.655Z,34.42
2022-12-08T19:33:47.098Z,39.17
2022-12-08T19:36:16.715Z,46.13
2022-12-08T19:38:43.505Z,46.88
2022-12-08T19:41:10.130Z,52.57
2022-12-08T19:43:36.659Z,55.40
2022-12-08T19:46:03.232Z,53.47
2022-12-08T19:48:29.824Z,49.13
2022-12-08T19:50:56.959Z,54.58
2022-12-08T19:53:23.724Z,48.63
2022-12-08T19:55:50.734Z,47.55
2022-12-08T19:58:17.392Z,50.13
2022-12-08T20:00:43.804Z,47.78
2022-12-08T20:03:15.058Z,39.63
2022-12-08T20:05:42.203Z,38.17
2022-12-08T20:08:09.361Z,40.78
2022-12-08T20:10:38.653Z,36.22
2022-12-08T20:13:06.168Z,34.22
2022-12-08T20:15:32.689Z,34.03
2022-12-08T20:17:59.182Z,30.87
2022-12-08T20:20:25.580Z,27.45
2022-12-08T20:22:51.983Z,27.42
2022-12-08T20:25:19.029Z,24.33
2022-12-08T20:27:45.736Z,22.95
2022-12-08T20:30:17.013Z,25.33
2022-12-08T20:32:44.184Z,24.80
2022-12-08T20:35:10.656Z,24.17
2022-12-08T20:37:37.116Z,26.23
2022-12-08T20:40:04.745Z,28.55
2022-12-08T20:42:31.220Z,24.93
2022-12-08T20:44:57.675Z,25.17
2022-12-08T20:47:24.303Z,25.98
2022-12-08T20:49:50.949Z,25.42
2022-12-08T20:52:18.488Z,25.50
2022-12-08T20:54:45.050Z,27.60
2022-12-08T20:57:11.646Z,29.25
2022-12-08T20:59:38.366Z,25.77
2022-12-08T21:02:04.965Z,29.15
2022-12-08T21:04:31.603Z,28.48
2022-12-08T21:06:58.155Z,29.23
2022-12-08T21:09:24.785Z,29.90
2022-12-08T21:11:51.307Z,29.67
2022-12-08T21:14:17.975Z,31.88
2022-12-08T21:16:44.580Z,32.80
2022-12-08T21:19:11.988Z,33.73
2022-12-08T21:21:38.791Z,34.97
2022-12-08T21:24:05.773Z,37.60
2022-12-08T21:26:32.453Z,36.17
2022-12-08T21:28:59.086Z,38.63
2022-12-08T21:31:26.030Z,36.47
2022-12-08T21:33:52.955Z,36.80
2022-12-08T21:36:21.296Z,39.55
2022-12-08T21:38:48.360Z,38.75
2022-12-08T21:41:18.024Z,41.20
2022-12-08T21:43:44.490Z,34.17
2022-12-08T21:46:15.685Z,41.33
2022-12-08T21:48:42.590Z,43.15
2022-12-08T21:51:09.283Z,45.25
2022-12-08T21:53:35.820Z,41.72
2022-12-08T21:56:02.294Z,41.70
2022-12-08T21:58:28.911Z,46.78
2022-12-08T22:00:55.645Z,48.67
2022-12-08T22:03:22.511Z,43.97
2022-12-08T22:05:49.047Z,41.40
2022-12-08T22:08:15.672Z,45.23
2022-12-08T22:10:47.319Z,47.47
2022-12-08T22:13:13.925Z,49.47
2022-12-08T22:15:40.358Z,49.95
2022-12-08T22:18:06.984Z,43.45
2022-12-08T22:20:33.758Z,51.40
2022-12-08T22:23:00.263Z,52.90
2022-12-08T22:25:26.832Z,56.58
2022-12-08T22:27:53.241Z,55.53
2022-12-08T22:30:19.899Z,50.63
2022-12-08T22:32:46.612Z,54.03
2022-12-08T22:35:13.159Z,51.60
2022-12-08T22:37:39.523Z,50.50
2022-12-08T22:40:07.497Z,47.83
2022-12-08T22:42:34.135Z,55.92
2022-12-08T22:45:00.613Z,53.27
2022-12-08T22:47:27.259Z,53.35
2022-12-08T22:49:53.677Z,57.47
2022-12-08T22:52:20.251Z,47.78
2022-12-08T22:54:46.809Z,51.45
2022-12-08T22:57:13.319Z,50.73
2022-12-08T22:59:39.772Z,44.90
2022-12-08T23:02:07.486Z,51.83
2022-12-08T23:04:34.791Z,50.80
2022-12-08T23:07:02.032Z,49.67
2022-12-08T23:09:28.517Z,48.47
2022-12-08T23:11:55.786Z,54.80
2022-12-08T23:14:22.656Z,50.08
2022-12-08T23:16:49.245Z,43.90
2022-12-08T23:19:15.765Z,48.42
2022-12-08T23:21:42.284Z,55.53
2022-12-08T23:24:08.730Z,49.42
2022-12-08T23:26:35.451Z,46.55
2022-12-08T23:29:02.308Z,43.65
2022-12-08T23:31:29.071Z,50.30
2022-12-08T23:33:56.068Z,47.87
2022-12-08T23:36:23.638Z,47.80
2022-12-08T23:38:50.106Z,44.95
2022-12-08T23:41:16.788Z,45.85
2022-12-08T23:43:51.365Z,49.45
2022-12-08T23:46:20.277Z,41.90
2022-12-08T23:48:47.382Z,47.88
2022-12-08T23:51:14.543Z,60.60
2022-12-08T23:53:41.590Z,71.68
2022-12-08T23:56:11.168Z,81.63
2022-12-08T23:58:38.033Z,63.80
